Danielle Casanova — FILL — position and weather

sailwx.info

Track history (hours):
 
Tides and Currents Weather Stations Pressure Air Temp Water Temp Dewpoint Dewpoint Depression Visibility Wind Speed Wind Dir Waves Ship Positions

Danielle Casanova

Last reported at 2018-Jun-20 01:39 UTC. Time now 2018-Jun-20 04:04 UTC.
Position N 43°18' E 005°22'.

Length 176 m; .

Type: Passenger vessel. MMSI: 226242000.

Date/timePositionNaut miles runAvg speedWind from/ knotsBaromVisibWave heightAir tempDewpointWater temp
2018-Jun-20 01:39N 43°18' E 005°22'0 0.0
2018-Jun-19 13:08N 43°18' E 005°22'0 1.4
2018-Jun-19 13:00N 43°18' E 005°21'2918.4
2018-Jun-19 11:25N 42°50' E 005°34'922.2
2018-Jun-19 11:00N 42°42' E 005°39'1121.8
2018-Jun-19 10:30N 42°32' E 005°45'1121.8
2018-Jun-19 10:00N 42°23' E 005°53'1121.9
2018-Jun-19 09:30N 42°13' E 006°00'1121.8
2018-Jun-19 09:00N 42°04' E 006°07'1121.8
2018-Jun-19 08:30N 41°54' E 006°14'25 0.6
2018-Jun-17 14:52N 42°16' E 005°58'821.1
2018-Jun-17 14:30N 42°23' E 005°53'1121.4
2018-Jun-17 14:00N 42°32' E 005°47'1121.4
2018-Jun-17 13:30N 42°41' E 005°39'3421.3
2018-Jun-17 11:56N 43°11' E 005°18'714.3
2018-Jun-17 11:28N 43°18' E 005°21'0 0.1
2018-Jun-17 05:52N 43°18' E 005°22'0 0.0
2018-Jun-15 06:13N 43°18' E 005°22'0 0.0
2018-Jun-15 05:57N 43°18' E 005°22'0 0.0
2018-Jun-15 05:30N 43°18' E 005°22'0 0.0
2018-Jun-15 05:00N 43°18' E 005°22'0 0.0
2018-Jun-15 04:26N 43°18' E 005°22'0 0.0
2018-Jun-15 03:56N 43°18' E 005°22'0 0.0
2018-Jun-15 03:30N 43°18' E 005°22'0 0.0
2018-Jun-15 03:00N 43°18' E 005°22'0 0.0
2018-Jun-15 02:30N 43°18' E 005°22'0 0.0
2018-Jun-15 01:57N 43°18' E 005°22'0 0.0
2018-Jun-15 01:29N 43°18' E 005°22'0 0.0
2018-Jun-15 01:00N 43°18' E 005°22'0 0.0
2018-Jun-15 00:26N 43°18' E 005°22'0 0.0
2018-Jun-15 00:00N 43°18' E 005°22'0 0.0
2018-Jun-14 23:30N 43°18' E 005°22'0 0.0
2018-Jun-14 22:57N 43°18' E 005°22'0 0.0
2018-Jun-14 22:28N 43°18' E 005°22'0 0.0
2018-Jun-14 22:00N 43°18' E 005°22'0 0.0
2018-Jun-14 21:30N 43°18' E 005°22'0 0.0
2018-Jun-14 20:58N 43°18' E 005°22'0 0.0
2018-Jun-14 20:28N 43°18' E 005°22'0 0.0
2018-Jun-14 19:55N 43°18' E 005°22'0 0.0
2018-Jun-14 18:59N 43°18' E 005°22'0 0.0
2018-Jun-14 18:30N 43°18' E 005°22'0 0.0
2018-Jun-14 12:13N 43°18' E 005°22'2 8.8
2018-Jun-14 12:00N 43°17' E 005°20'815.3
2018-Jun-14 11:30N 43°12' E 005°11'26616.6
2018-Jun-13 19:28N 38°58' E 003°28'2423.6
2018-Jun-13 18:26N 38°34' E 003°24'293 9.6
2018-Jun-12 11:49N 43°14' E 005°18'412.8
2018-Jun-12 11:28N 43°18' E 005°21'1 0.1
2018-Jun-12 06:04N 43°18' E 005°22'0 0.0
2018-Jun-12 01:07N 43°18' E 005°22'0 0.0
2018-Jun-12 00:07N 43°18' E 005°22'0 0.0
2018-Jun-11 22:58N 43°18' E 005°22'0 0.0
2018-Jun-11 18:19N 43°18' E 005°22'0 0.0
2018-Jun-11 16:31N 43°18' E 005°22'0 0.0
2018-Jun-11 13:55N 43°18' E 005°22'0 0.0
2018-Jun-11 11:25N 43°18' E 005°22'0 0.0
2018-Jun-11 10:58N 43°18' E 005°22'0 0.0
2018-Jun-11 09:13N 43°18' E 005°22'0 0.0
2018-Jun-11 08:58N 43°18' E 005°22'0 0.0
2018-Jun-11 08:25N 43°18' E 005°22'0 0.0
2018-Jun-11 07:58N 43°18' E 005°22'0 0.0
2018-Jun-11 07:25N 43°18' E 005°22'0 0.0
2018-Jun-11 06:22N 43°18' E 005°22'0 0.0
2018-Jun-11 06:00N 43°18' E 005°22'0 0.0
2018-Jun-11 05:29N 43°18' E 005°22'0 0.1
2018-Jun-11 05:00N 43°18' E 005°22'3 6.5
2018-Jun-11 04:30N 43°16' E 005°19'4021.0
2018-Jun-11 02:37N 42°52' E 006°03'323.0
2018-Jun-11 02:29N 42°50' E 006°07'1123.3
2018-Jun-11 02:00N 42°45' E 006°20'1223.3
2018-Jun-11 01:30N 42°39' E 006°34'1223.1
2018-Jun-11 01:01N 42°34' E 006°47'1223.3
2018-Jun-11 00:31N 42°28' E 007°01'1223.3
2018-Jun-11 00:00N 42°22' E 007°15'1223.4
2018-Jun-10 23:31N 42°16' E 007°29'1323.2
2018-Jun-10 22:57N 42°10' E 007°44'1023.1
2018-Jun-10 22:30N 42°05' E 007°56'1321.5
2018-Jun-10 21:55N 41°59' E 008°11'  
Track history (hours):
 
Tides and Currents Weather Stations Pressure Air Temp Water Temp Dewpoint Dewpoint Depression Visibility Wind Speed Wind Dir Waves Ship Positions

Danielle Casanova

Last reported at 2018-Jun-20 01:39 UTC. Time now 2018-Jun-20 04:04 UTC.
Position N 43°18' E 005°22'.

Length 176 m; .

Type: Passenger vessel. MMSI: 226242000.

Date/timePositionNaut miles runAvg speedWind from/ knotsBaromVisibWave heightAir tempDewpointWater temp
2018-Jun-20 01:39N 43°18' E 005°22'0 0.0
2018-Jun-19 13:08N 43°18' E 005°22'0 1.4
2018-Jun-19 13:00N 43°18' E 005°21'2918.4
2018-Jun-19 11:25N 42°50' E 005°34'922.2
2018-Jun-19 11:00N 42°42' E 005°39'1121.8
2018-Jun-19 10:30N 42°32' E 005°45'1121.8
2018-Jun-19 10:00N 42°23' E 005°53'1121.9
2018-Jun-19 09:30N 42°13' E 006°00'1121.8
2018-Jun-19 09:00N 42°04' E 006°07'1121.8
2018-Jun-19 08:30N 41°54' E 006°14'25 0.6
2018-Jun-17 14:52N 42°16' E 005°58'821.1
2018-Jun-17 14:30N 42°23' E 005°53'1121.4
2018-Jun-17 14:00N 42°32' E 005°47'1121.4
2018-Jun-17 13:30N 42°41' E 005°39'3421.3
2018-Jun-17 11:56N 43°11' E 005°18'714.3
2018-Jun-17 11:28N 43°18' E 005°21'0 0.1
2018-Jun-17 05:52N 43°18' E 005°22'0 0.0
2018-Jun-15 06:13N 43°18' E 005°22'0 0.0
2018-Jun-15 05:57N 43°18' E 005°22'0 0.0
2018-Jun-15 05:30N 43°18' E 005°22'0 0.0
2018-Jun-15 05:00N 43°18' E 005°22'0 0.0
2018-Jun-15 04:26N 43°18' E 005°22'0 0.0
2018-Jun-15 03:56N 43°18' E 005°22'0 0.0
2018-Jun-15 03:30N 43°18' E 005°22'0 0.0
2018-Jun-15 03:00N 43°18' E 005°22'0 0.0
2018-Jun-15 02:30N 43°18' E 005°22'0 0.0
2018-Jun-15 01:57N 43°18' E 005°22'0 0.0
2018-Jun-15 01:29N 43°18' E 005°22'0 0.0
2018-Jun-15 01:00N 43°18' E 005°22'0 0.0
2018-Jun-15 00:26N 43°18' E 005°22'0 0.0
2018-Jun-15 00:00N 43°18' E 005°22'0 0.0
2018-Jun-14 23:30N 43°18' E 005°22'0 0.0
2018-Jun-14 22:57N 43°18' E 005°22'0 0.0
2018-Jun-14 22:28N 43°18' E 005°22'0 0.0
2018-Jun-14 22:00N 43°18' E 005°22'0 0.0
2018-Jun-14 21:30N 43°18' E 005°22'0 0.0
2018-Jun-14 20:58N 43°18' E 005°22'0 0.0
2018-Jun-14 20:28N 43°18' E 005°22'0 0.0
2018-Jun-14 19:55N 43°18' E 005°22'0 0.0
2018-Jun-14 18:59N 43°18' E 005°22'0 0.0
2018-Jun-14 18:30N 43°18' E 005°22'0 0.0
2018-Jun-14 12:13N 43°18' E 005°22'2 8.8
2018-Jun-14 12:00N 43°17' E 005°20'815.3
2018-Jun-14 11:30N 43°12' E 005°11'26616.6
2018-Jun-13 19:28N 38°58' E 003°28'2423.6
2018-Jun-13 18:26N 38°34' E 003°24'293 9.6
2018-Jun-12 11:49N 43°14' E 005°18'412.8
2018-Jun-12 11:28N 43°18' E 005°21'1 0.1
2018-Jun-12 06:04N 43°18' E 005°22'0 0.0
2018-Jun-12 01:07N 43°18' E 005°22'0 0.0
2018-Jun-12 00:07N 43°18' E 005°22'0 0.0
2018-Jun-11 22:58N 43°18' E 005°22'0 0.0
2018-Jun-11 18:19N 43°18' E 005°22'0 0.0
2018-Jun-11 16:31N 43°18' E 005°22'0 0.0
2018-Jun-11 13:55N 43°18' E 005°22'0 0.0
2018-Jun-11 11:25N 43°18' E 005°22'0 0.0
2018-Jun-11 10:58N 43°18' E 005°22'0 0.0
2018-Jun-11 09:13N 43°18' E 005°22'0 0.0
2018-Jun-11 08:58N 43°18' E 005°22'0 0.0
2018-Jun-11 08:25N 43°18' E 005°22'0 0.0
2018-Jun-11 07:58N 43°18' E 005°22'0 0.0
2018-Jun-11 07:25N 43°18' E 005°22'0 0.0
2018-Jun-11 06:22N 43°18' E 005°22'0 0.0
2018-Jun-11 06:00N 43°18' E 005°22'0 0.0
2018-Jun-11 05:29N 43°18' E 005°22'0 0.1
2018-Jun-11 05:00N 43°18' E 005°22'3 6.5
2018-Jun-11 04:30N 43°16' E 005°19'4021.0
2018-Jun-11 02:37N 42°52' E 006°03'323.0
2018-Jun-11 02:29N 42°50' E 006°07'1123.3
2018-Jun-11 02:00N 42°45' E 006°20'1223.3
2018-Jun-11 01:30N 42°39' E 006°34'1223.1
2018-Jun-11 01:01N 42°34' E 006°47'1223.3
2018-Jun-11 00:31N 42°28' E 007°01'1223.3
2018-Jun-11 00:00N 42°22' E 007°15'1223.4
2018-Jun-10 23:31N 42°16' E 007°29'1323.2
2018-Jun-10 22:57N 42°10' E 007°44'1023.1
2018-Jun-10 22:30N 42°05' E 007°56'1321.5
2018-Jun-10 21:55N 41°59' E 008°11'  

Dump ship's entire track history